Time;durP1;ratioP1;P1;durP2;ratioP2;P2;SDS_P1;SDS_P2;PMS_P1;PMS_P2;Temp;Humidity;BMP_temperature;BMP_pressure;BME280_temperature;BME280_humidity;BME280_pressure;Samples;Min_cycle;Max_cycle;Signal;HPM_P1;HPM_P2
2021/01/05 00:00:21;;;;;;;12.80;9.40;;;2.80;95.70;;;;;;5122668;27;20416;-77
2021/01/05 00:02:50;;;;;;;13.00;9.73;;;2.80;95.60;;;;;;5109386;27;20042;-76
2021/01/05 00:05:16;;;;;;;11.40;8.47;;;2.80;95.70;;;;;;5076622;27;20043;-76
2021/01/05 00:07:43;;;;;;;11.23;8.83;;;2.80;95.60;;;;;;5126930;27;21255;-76
2021/01/05 00:10:10;;;;;;;11.67;9.13;;;2.80;95.70;;;;;;5106031;27;20051;-75
2021/01/05 00:12:38;;;;;;;10.23;8.80;;;2.80;95.60;;;;;;5092605;27;20039;-75
2021/01/05 00:15:06;;;;;;;11.97;9.77;;;2.80;95.60;;;;;;5092163;27;20508;-75
2021/01/05 00:17:33;;;;;;;13.23;9.70;;;2.80;95.60;;;;;;5087065;27;20050;-77
2021/01/05 00:20:00;;;;;;;14.30;10.03;;;2.80;95.60;;;;;;5122472;27;20031;-76
2021/01/05 00:22:27;;;;;;;11.80;9.37;;;2.80;95.60;;;;;;5107143;27;20401;-76
2021/01/05 00:24:54;;;;;;;15.00;9.97;;;2.80;95.60;;;;;;5107670;27;20497;-76
2021/01/05 00:27:20;;;;;;;14.37;10.23;;;2.80;95.60;;;;;;5107730;27;20051;-76
2021/01/05 00:29:47;;;;;;;14.07;10.90;;;2.80;95.60;;;;;;5123434;27;20505;-76
2021/01/05 00:32:18;;;;;;;14.33;10.20;;;2.80;95.60;;;;;;5109021;27;20027;-76
2021/01/05 00:34:46;;;;;;;15.13;10.85;;;2.70;95.50;;;;;;5127254;27;20038;-76
2021/01/05 00:37:14;;;;;;;13.67;10.63;;;2.80;95.40;;;;;;5126724;27;20043;-76
2021/01/05 00:39:42;;;;;;;14.23;10.40;;;2.70;95.40;;;;;;5086318;27;20050;-75
2021/01/05 00:42:09;;;;;;;15.07;11.00;;;2.70;95.30;;;;;;5074680;27;20031;-75
2021/01/05 00:44:36;;;;;;;13.63;10.10;;;2.70;95.30;;;;;;5074014;27;20371;-76
2021/01/05 00:47:04;;;;;;;13.30;10.10;;;2.70;95.40;;;;;;5103751;27;20409;-76
2021/01/05 00:49:31;;;;;;;14.83;11.10;;;2.70;95.50;;;;;;5123680;27;20031;-76
2021/01/05 00:51:58;;;;;;;13.40;10.40;;;2.80;95.50;;;;;;5126770;27;20432;-76
2021/01/05 00:54:26;;;;;;;15.40;10.93;;;2.80;95.80;;;;;;5108289;27;20019;-76
2021/01/05 00:57:05;;;;;;;14.13;10.43;;;2.80;95.50;;;;;;5091900;27;20023;-75
2021/01/05 00:59:33;;;;;;;14.60;11.20;;;2.80;95.50;;;;;;5088864;27;20034;-75
2021/01/05 01:02:00;;;;;;;14.30;10.67;;;2.80;95.50;;;;;;5074173;27;20035;-75
2021/01/05 01:04:31;;;;;;;14.07;10.77;;;2.70;95.60;;;;;;5109043;27;20035;-75
2021/01/05 01:06:59;;;;;;;18.00;11.47;;;2.80;95.60;;;;;;5108284;27;20109;-75
2021/01/05 01:09:27;;;;;;;15.93;12.67;;;2.80;95.70;;;;;;5104561;27;20078;-75
2021/01/05 01:12:13;;;;;;;16.33;11.83;;;2.80;95.70;;;;;;5090847;27;20098;-75
2021/01/05 01:14:43;;;;;;;15.77;11.37;;;2.80;95.60;;;;;;5072393;27;20054;-75
2021/01/05 01:17:10;;;;;;;14.57;10.67;;;2.70;95.60;;;;;;5090968;27;20034;-75
2021/01/05 01:19:37;;;;;;;17.60;12.53;;;2.80;95.60;;;;;;5105013;27;20036;-75
2021/01/05 01:22:06;;;;;;;16.47;11.67;;;2.80;95.60;;;;;;5091478;27;20043;-76
2021/01/05 01:24:33;;;;;;;15.60;11.53;;;2.70;95.60;;;;;;5091207;27;20034;-75
2021/01/05 01:27:00;;;;;;;16.27;11.17;;;2.70;95.60;;;;;;5089278;27;20053;-75
2021/01/05 01:29:29;;;;;;;15.77;11.07;;;2.70;95.50;;;;;;5071230;27;20050;-75
2021/01/05 01:31:56;;;;;;;13.23;10.13;;;2.70;95.50;;;;;;5107553;27;20031;-75
2021/01/05 01:34:26;;;;;;;16.07;11.60;;;2.80;95.70;;;;;;5108276;27;20027;-75
2021/01/05 01:37:00;;;;;;;14.10;10.23;;;2.80;95.60;;;;;;5107710;27;20043;-75
2021/01/05 01:39:41;;;;;;;15.47;11.40;;;2.80;95.60;;;;;;5091561;27;20048;-75
2021/01/05 01:42:12;;;;;;;15.07;11.00;;;2.80;95.60;;;;;;5090749;27;20050;-75
2021/01/05 01:44:41;;;;;;;13.53;10.60;;;2.80;95.50;;;;;;5091179;27;20047;-75
2021/01/05 01:47:20;;;;;;;15.00;10.93;;;2.80;95.50;;;;;;5088554;27;20390;-75
2021/01/05 01:50:12;;;;;;;15.90;10.53;;;2.80;95.50;;;;;;5102190;27;20612;-75
2021/01/05 01:53:03;;;;;;;14.13;10.93;;;2.80;95.50;;;;;;5112775;27;20592;-76
2021/01/05 01:55:49;;;;;;;13.37;10.13;;;2.80;95.40;;;;;;5089579;27;20035;-75
2021/01/05 01:58:35;;;;;;;13.80;10.33;;;2.80;95.40;;;;;;5104990;27;20039;-75
2021/01/05 02:01:29;;;;;;;13.43;10.20;;;2.80;95.40;;;;;;5075143;28;20581;-75
2021/01/05 02:04:20;;;;;;;14.10;10.43;;;2.80;95.40;;;;;;5107319;27;20473;-75
2021/01/05 02:06:47;;;;;;;13.33;9.33;;;2.80;95.40;;;;;;5107402;27;20499;-75
2021/01/05 02:09:50;;;;;;;14.17;10.63;;;2.80;95.50;;;;;;5104343;27;20046;-75
2021/01/05 02:12:50;;;;;;;16.77;11.90;;;2.80;95.50;;;;;;5087533;27;20043;-75
2021/01/05 02:16:08;;;;;;;13.73;10.53;;;2.90;95.60;;;;;;5105829;27;20042;-75
2021/01/05 02:18:46;;;;;;;16.63;12.03;;;2.90;95.60;;;;;;5060484;27;21322;-75
2021/01/05 02:21:24;;;;;;;14.20;10.70;;;2.80;95.50;;;;;;5082131;27;20054;-75
2021/01/05 02:24:15;;;;;;;15.93;11.87;;;2.80;95.50;;;;;;5089762;27;20037;-75
2021/01/05 02:27:24;;;;;;;14.70;10.77;;;2.80;95.50;;;;;;5105902;27;20066;-75
2021/01/05 02:30:04;;;;;;;15.87;11.43;;;2.80;95.60;;;;;;5008276;28;20049;-75
2021/01/05 02:32:43;;;;;;;16.37;12.03;;;2.80;95.60;;;;;;5003578;28;20045;-76
2021/01/05 02:35:42;;;;;;;18.27;11.90;;;2.80;95.60;;;;;;5069274;27;20035;-75
2021/01/05 02:39:02;;;;;;;19.03;12.87;;;2.90;95.60;;;;;;5104357;27;20516;-75
2021/01/05 02:42:13;;;;;;;19.70;13.87;;;2.90;95.60;;;;;;5122942;27;20512;-76
2021/01/05 02:45:09;;;;;;;15.87;11.67;;;2.90;95.50;;;;;;5092250;27;20031;-75
2021/01/05 02:48:28;;;;;;;17.77;12.30;;;2.90;95.50;;;;;;5091211;27;20050;-75
2021/01/05 02:51:31;;;;;;;15.97;11.53;;;2.80;95.40;;;;;;5091203;27;20050;-75
2021/01/05 02:54:54;;;;;;;15.57;11.03;;;2.90;95.50;;;;;;5106257;27;20039;-75
2021/01/05 02:57:57;;;;;;;14.90;12.30;;;2.90;95.50;;;;;;5124379;27;20386;-76
2021/01/05 03:01:11;;;;;;;20.17;13.20;;;2.90;95.40;;;;;;5106326;27;20303;-75
2021/01/05 03:03:57;;;;;;;15.97;12.40;;;2.80;95.20;;;;;;5106461;28;20043;-75
2021/01/05 03:06:52;;;;;;;15.63;11.73;;;2.90;95.30;;;;;;5109475;27;20039;-75
2021/01/05 03:10:04;;;;;;;16.97;12.40;;;2.90;95.30;;;;;;5105234;28;20055;-75
2021/01/05 03:13:14;;;;;;;16.53;11.40;;;2.90;95.30;;;;;;5088234;28;20039;-75
2021/01/05 03:16:20;;;;;;;16.30;12.27;;;2.90;95.30;;;;;;5121549;28;20050;-75
2021/01/05 03:19:31;;;;;;;18.23;13.37;;;2.90;95.30;;;;;;5120829;28;20043;-75
2021/01/05 03:22:45;;;;;;;17.27;11.37;;;2.90;95.30;;;;;;5023656;28;20057;-75
2021/01/05 03:25:34;;;;;;;18.47;13.53;;;2.90;95.30;;;;;;5029355;28;20416;-75
2021/01/05 03:28:24;;;;;;;16.80;12.27;;;2.90;95.30;;;;;;5091163;27;20043;-75
2021/01/05 03:31:17;;;;;;;15.27;12.10;;;2.90;95.30;;;;;;5125967;27;20043;-75
2021/01/05 03:34:04;;;;;;;16.97;12.77;;;2.90;95.30;;;;;;5125665;27;20039;-75
2021/01/05 03:36:50;;;;;;;18.50;13.17;;;2.90;95.30;;;;;;5128328;27;20043;-75
2021/01/05 03:39:35;;;;;;;17.47;12.67;;;2.90;95.30;;;;;;5108140;27;20039;-75
2021/01/05 03:42:37;;;;;;;20.73;13.67;;;2.90;95.30;;;;;;5038129;28;20492;-76
2021/01/05 03:45:27;;;;;;;17.67;13.00;;;2.90;95.30;;;;;;5089809;27;20046;-75
2021/01/05 03:48:12;;;;;;;18.70;12.40;;;2.90;95.30;;;;;;5126693;27;20038;-81
2021/01/05 03:50:56;;;;;;;22.53;14.53;;;2.90;95.20;;;;;;5111043;27;20051;-81
2021/01/05 03:53:41;;;;;;;19.07;13.40;;;2.90;95.30;;;;;;5098745;27;20035;-81
2021/01/05 03:56:26;;;;;;;21.93;14.93;;;2.90;95.40;;;;;;5112983;27;20054;-81
2021/01/05 03:59:12;;;;;;;20.67;14.47;;;2.90;95.40;;;;;;5126802;27;20031;-80
2021/01/05 04:01:57;;;;;;;17.77;12.77;;;2.90;95.40;;;;;;5076205;27;20050;-81
2021/01/05 04:04:23;;;;;;;20.27;15.37;;;2.90;95.50;;;;;;5112855;27;20046;-80
2021/01/05 04:06:50;;;;;;;22.67;15.37;;;2.90;95.50;;;;;;5112303;27;20058;-81
2021/01/05 04:09:16;;;;;;;21.53;15.13;;;2.90;95.50;;;;;;5092007;27;20050;-81
2021/01/05 04:11:43;;;;;;;22.67;14.80;;;2.90;95.50;;;;;;5112829;27;20054;-81
2021/01/05 04:14:09;;;;;;;22.33;15.40;;;2.90;95.60;;;;;;5112939;27;20047;-80
2021/01/05 04:16:36;;;;;;;21.50;15.50;;;2.90;95.60;;;;;;5112873;27;20043;-80
2021/01/05 04:19:03;;;;;;;21.13;13.83;;;2.90;95.60;;;;;;5110233;27;21373;-81
2021/01/05 04:21:29;;;;;;;20.27;14.07;;;2.90;95.60;;;;;;5094880;27;20809;-80
2021/01/05 04:23:56;;;;;;;20.10;14.80;;;2.90;95.60;;;;;;5130158;27;20043;-81
2021/01/05 04:26:22;;;;;;;25.70;16.60;;;2.90;95.70;;;;;;5094481;27;20046;-80
2021/01/05 04:28:49;;;;;;;27.83;17.23;;;2.90;95.70;;;;;;5092276;27;20042;-80
2021/01/05 04:31:15;;;;;;;27.37;17.67;;;2.90;95.70;;;;;;5076144;27;20057;-81
2021/01/05 04:33:42;;;;;;;25.90;16.23;;;2.90;95.70;;;;;;5111267;27;20039;-81
2021/01/05 04:36:08;;;;;;;26.83;17.60;;;2.90;95.70;;;;;;5111546;27;20042;-80
2021/01/05 04:38:35;;;;;;;28.00;18.13;;;2.90;95.80;;;;;;5129109;27;20034;-81
2021/01/05 04:41:01;;;;;;;22.00;15.33;;;2.90;95.80;;;;;;5077003;27;20039;-81
2021/01/05 04:43:34;;;;;;;24.30;15.90;;;2.90;95.80;;;;;;5112246;27;20074;-80
2021/01/05 04:46:17;;;;;;;;;;;2.90;95.90;;;;;;5112386;27;20039;-80
2021/01/05 04:49:22;;;;;;;27.60;17.55;;;2.90;95.90;;;;;;5106589;27;20277;-81
2021/01/05 04:51:59;;;;;;;23.07;15.37;;;2.90;95.80;;;;;;5081503;27;20062;-81
2021/01/05 04:54:35;;;;;;;25.43;16.63;;;2.90;95.70;;;;;;5109942;27;20035;-81
2021/01/05 04:57:17;;;;;;;22.23;14.73;;;2.90;95.70;;;;;;5127699;27;20039;-81
2021/01/05 04:59:48;;;;;;;23.57;14.87;;;2.90;95.70;;;;;;5092091;27;20031;-81
2021/01/05 05:02:20;;;;;;;18.87;13.33;;;2.90;95.70;;;;;;5111686;27;20035;-81
2021/01/05 05:04:55;;;;;;;18.88;13.40;;;2.90;95.70;;;;;;5094129;27;20051;-81
2021/01/05 05:07:31;;;;;;;22.77;14.87;;;2.90;95.80;;;;;;5109860;27;20055;-80
2021/01/05 05:10:24;;;;;;;20.77;14.17;;;3.00;95.80;;;;;;5108145;27;20050;-81
2021/01/05 05:13:25;;;;;;;20.80;14.35;;;3.00;95.70;;;;;;5111182;27;20132;-81
2021/01/05 05:16:09;;;;;;;20.10;12.77;;;3.00;96.00;;;;;;5110046;27;20082;-81
2021/01/05 05:18:35;;;;;;;23.50;15.40;;;3.00;95.70;;;;;;5126672;27;20044;-81
2021/01/05 05:21:40;;;;;;;22.03;15.77;;;3.00;95.70;;;;;;5129200;27;20493;-81
2021/01/05 05:24:13;;;;;;;25.33;16.87;;;3.00;95.60;;;;;;5127841;27;20059;-81
2021/01/05 05:27:04;;;;;;;24.17;15.43;;;2.90;95.60;;;;;;5128064;27;20043;-81
2021/01/05 05:29:57;;;;;;;23.77;17.10;;;2.90;95.70;;;;;;5108650;27;20035;-81
2021/01/05 05:32:35;;;;;;;26.33;16.67;;;2.90;95.70;;;;;;5127773;27;20050;-80
2021/01/05 05:35:04;;;;;;;26.00;15.87;;;2.90;95.70;;;;;;5111499;27;20035;-81
2021/01/05 05:37:59;;;;;;;24.73;16.43;;;2.90;95.80;;;;;;5112434;27;20481;-81
2021/01/05 05:41:05;;;;;;;29.87;18.37;;;2.80;95.90;;;;;;5108726;27;20043;-80
2021/01/05 05:43:47;;;;;;;25.03;16.27;;;2.80;96.00;;;;;;5096788;27;20039;-81
2021/01/05 05:46:35;;;;;;;25.08;16.65;;;2.90;96.10;;;;;;5124754;27;20410;-80
2021/01/05 05:49:18;;;;;;;25.87;16.37;;;2.80;96.10;;;;;;5126638;27;20043;-79
2021/01/05 05:51:49;;;;;;;26.07;17.57;;;2.80;96.10;;;;;;5109979;27;20062;-80
2021/01/05 05:54:19;;;;;;;23.50;15.23;;;2.80;96.20;;;;;;5111053;27;20489;-81
2021/01/05 05:56:52;;;;;;;26.93;17.00;;;2.80;96.20;;;;;;5129166;27;20035;-81
2021/01/05 05:59:20;;;;;;;;;;;2.80;96.20;;;;;;5125610;27;20046;-80
2021/01/05 06:01:47;;;;;;;24.20;14.57;;;2.90;96.20;;;;;;5110699;27;19907;-80
2021/01/05 06:04:14;;;;;;;35.57;21.87;;;2.90;96.20;;;;;;5107038;27;20481;-79
2021/01/05 06:06:42;;;;;;;27.17;17.80;;;2.90;96.20;;;;;;5125711;27;20539;-85
2021/01/05 06:09:09;;;;;;;24.07;15.50;;;2.90;96.20;;;;;;5059058;27;20042;-78
2021/01/05 06:11:37;;;;;;;20.63;14.10;;;2.90;96.10;;;;;;5110287;27;20486;-80
2021/01/05 06:14:05;;;;;;;27.57;17.00;;;2.90;96.30;;;;;;5093302;27;20051;-79
2021/01/05 06:16:33;;;;;;;22.20;14.27;;;2.90;96.10;;;;;;5093144;27;20039;-78
2021/01/05 06:19:00;;;;;;;24.53;15.13;;;2.90;96.20;;;;;;5073535;27;20023;-80
2021/01/05 06:21:27;;;;;;;21.53;14.27;;;2.90;96.00;;;;;;5075274;27;20039;-80
2021/01/05 06:23:53;;;;;;;23.50;15.03;;;2.90;95.90;;;;;;5108936;27;20047;-81
2021/01/05 06:26:20;;;;;;;24.97;16.30;;;3.00;95.90;;;;;;5109492;27;20035;-80
2021/01/05 06:28:49;;;;;;;22.53;14.87;;;3.00;95.90;;;;;;5108388;27;20047;-80
2021/01/05 06:31:16;;;;;;;25.57;15.90;;;3.00;95.90;;;;;;5126226;27;20043;-80
2021/01/05 06:33:43;;;;;;;24.67;15.80;;;3.00;95.80;;;;;;5093068;27;20043;-80
2021/01/05 06:36:10;;;;;;;25.87;16.10;;;3.00;95.70;;;;;;5075481;27;20043;-80
2021/01/05 06:38:37;;;;;;;27.03;16.43;;;3.00;95.70;;;;;;5126285;27;20043;-81
2021/01/05 06:41:04;;;;;;;26.33;15.60;;;3.00;95.70;;;;;;5108089;27;20027;-80
2021/01/05 06:43:30;;;;;;;24.90;16.00;;;3.00;95.70;;;;;;5109333;27;20038;-80
2021/01/05 06:45:57;;;;;;;26.47;16.23;;;3.00;95.70;;;;;;5109756;27;20035;-79
2021/01/05 06:48:24;;;;;;;20.87;13.93;;;3.00;95.70;;;;;;5076211;27;20420;-80
2021/01/05 06:50:51;;;;;;;26.43;15.97;;;3.00;96.00;;;;;;5113180;27;20046;-80
2021/01/05 06:53:17;;;;;;;24.47;15.67;;;3.00;95.80;;;;;;5092706;27;20043;-80
2021/01/05 06:55:43;;;;;;;27.93;17.33;;;3.00;95.80;;;;;;5111756;27;20054;-80
2021/01/05 06:58:10;;;;;;;24.80;15.00;;;3.00;95.70;;;;;;5109748;28;20393;-80
2021/01/05 07:00:37;;;;;;;26.57;16.63;;;3.00;95.90;;;;;;5092726;27;20058;-80
2021/01/05 07:03:03;;;;;;;26.87;17.70;;;3.00;95.70;;;;;;5127441;27;20042;-80
2021/01/05 07:05:30;;;;;;;26.27;17.57;;;3.00;95.70;;;;;;5091831;27;20035;-80
2021/01/05 07:07:56;;;;;;;25.00;16.20;;;3.00;95.70;;;;;;5074943;28;20490;-80
2021/01/05 07:10:24;;;;;;;24.93;15.50;;;3.00;95.70;;;;;;5088810;28;20890;-80
2021/01/05 07:12:50;;;;;;;25.33;14.47;;;3.10;95.70;;;;;;5107204;28;20043;-80
2021/01/05 07:15:18;;;;;;;23.50;15.77;;;3.10;95.80;;;;;;5127503;28;20036;-80
2021/01/05 07:17:45;;;;;;;27.97;16.77;;;3.10;95.70;;;;;;5127090;28;20039;-80
2021/01/05 07:20:13;;;;;;;23.87;15.33;;;3.10;95.80;;;;;;5103961;28;20042;-80
2021/01/05 07:22:40;;;;;;;24.33;16.00;;;3.10;95.80;;;;;;5126219;28;20042;-80
2021/01/05 07:25:10;;;;;;;26.13;17.20;;;3.10;95.70;;;;;;5126217;28;20051;-80
2021/01/05 07:27:37;;;;;;;24.80;16.83;;;3.10;95.70;;;;;;5124405;28;20046;-80
2021/01/05 07:30:08;;;;;;;28.80;17.40;;;3.10;95.70;;;;;;5105084;28;20042;-80
2021/01/05 07:32:35;;;;;;;30.27;18.43;;;3.20;95.70;;;;;;5090103;28;20736;-80
2021/01/05 07:35:02;;;;;;;28.43;17.60;;;3.20;95.70;;;;;;5126920;28;20054;-81
2021/01/05 07:37:34;;;;;;;25.00;16.60;;;3.10;95.70;;;;;;5090358;28;20070;-80
2021/01/05 07:40:01;;;;;;;27.88;18.00;;;3.20;95.70;;;;;;5088240;28;20039;-79
2021/01/05 07:42:29;;;;;;;27.13;16.53;;;3.20;95.70;;;;;;5074054;28;20706;-81
2021/01/05 07:45:02;;;;;;;31.47;17.90;;;3.20;95.70;;;;;;5092709;28;20907;-80
2021/01/05 07:47:32;;;;;;;;;;;3.20;95.70;;;;;;5106574;28;20109;-80
2021/01/05 07:49:59;;;;;;;29.40;17.30;;;3.20;95.70;;;;;;5108199;28;19911;-81
2021/01/05 07:52:33;;;;;;;24.70;15.13;;;3.20;95.70;;;;;;5128101;28;20051;-81
2021/01/05 07:55:00;;;;;;;27.23;17.17;;;3.20;95.80;;;;;;5124619;28;20043;-81
2021/01/05 07:57:27;;;;;;;29.00;17.63;;;3.20;95.80;;;;;;5124432;27;20043;-81
2021/01/05 07:59:53;;;;;;;29.47;18.43;;;3.20;95.80;;;;;;5122113;27;20055;-81
2021/01/05 08:02:20;;;;;;;31.07;19.13;;;3.20;95.80;;;;;;5086761;28;20074;-81
2021/01/05 08:04:46;;;;;;;29.57;19.40;;;3.20;95.70;;;;;;5107687;28;20042;-81
2021/01/05 08:07:13;;;;;;;27.37;16.07;;;3.20;95.60;;;;;;5107896;28;20047;-81
2021/01/05 08:09:41;;;;;;;25.00;17.37;;;3.20;95.60;;;;;;5105333;27;20047;-81
2021/01/05 08:12:16;;;;;;;26.23;17.10;;;3.20;95.80;;;;;;5110930;27;20470;-81
2021/01/05 08:14:43;;;;;;;27.53;18.43;;;3.20;95.60;;;;;;5111111;27;20047;-84
2021/01/05 08:17:10;;;;;;;26.47;17.87;;;3.20;95.50;;;;;;5127181;27;20042;-84
2021/01/05 08:19:40;;;;;;;26.17;18.40;;;3.20;95.50;;;;;;5089075;27;20050;-83
2021/01/05 08:22:07;;;;;;;24.97;16.90;;;3.20;95.50;;;;;;5127344;27;20043;-83
2021/01/05 08:24:33;;;;;;;24.17;17.93;;;3.20;95.40;;;;;;5129659;27;20054;-82
2021/01/05 08:27:01;;;;;;;23.30;16.20;;;3.20;95.40;;;;;;5095988;27;20035;-82
2021/01/05 08:29:28;;;;;;;25.83;16.63;;;3.30;95.50;;;;;;5091030;27;20047;-83
2021/01/05 08:31:55;;;;;;;25.77;17.43;;;3.30;95.40;;;;;;5091204;27;20046;-82
2021/01/05 08:34:22;;;;;;;24.27;16.57;;;3.30;95.30;;;;;;5112136;27;20047;-83
2021/01/05 08:36:48;;;;;;;25.67;17.23;;;3.30;95.30;;;;;;5093304;27;20055;-83
2021/01/05 08:39:15;;;;;;;24.23;16.43;;;3.30;95.20;;;;;;5092447;27;20035;-83
2021/01/05 08:41:43;;;;;;;25.47;17.43;;;3.30;95.20;;;;;;5093106;27;20036;-83
2021/01/05 08:44:11;;;;;;;24.47;15.83;;;3.30;95.10;;;;;;5109481;27;20058;-81
2021/01/05 08:46:38;;;;;;;25.80;16.77;;;3.30;95.10;;;;;;5129248;27;20038;-81
2021/01/05 08:49:05;;;;;;;24.87;15.97;;;3.30;95.10;;;;;;5073729;27;20035;-81
2021/01/05 08:51:32;;;;;;;22.77;15.33;;;3.30;95.10;;;;;;5108538;27;20113;-82
2021/01/05 08:53:59;;;;;;;21.13;14.30;;;3.40;95.10;;;;;;5127418;27;20035;-84
2021/01/05 08:56:27;;;;;;;23.33;16.47;;;3.40;95.10;;;;;;5093855;27;20536;-81
2021/01/05 08:58:54;;;;;;;22.00;15.67;;;3.40;95.00;;;;;;5073213;27;20043;-81
2021/01/05 09:01:21;;;;;;;26.93;16.07;;;3.40;94.90;;;;;;5091026;27;20054;-80
2021/01/05 09:03:48;;;;;;;23.57;15.27;;;3.40;94.90;;;;;;5091231;27;20040;-82
2021/01/05 09:06:20;;;;;;;19.67;14.57;;;3.40;94.80;;;;;;5109794;27;20046;-81
2021/01/05 09:08:47;;;;;;;21.27;14.15;;;3.40;94.90;;;;;;5107571;27;20046;-81
2021/01/05 09:11:23;;;;;;;21.83;15.53;;;3.40;94.80;;;;;;5091509;27;20116;-82
2021/01/05 09:13:50;;;;;;;20.67;14.23;;;3.40;94.70;;;;;;5127825;27;20358;-81
2021/01/05 09:16:23;;;;;;;22.77;16.23;;;3.40;94.70;;;;;;5058859;27;20046;-82
2021/01/05 09:18:52;;;;;;;24.87;16.30;;;3.40;94.50;;;;;;5107054;27;20042;-81
2021/01/05 09:21:22;;;;;;;21.40;15.07;;;3.40;94.40;;;;;;5108477;27;20042;-81
2021/01/05 09:23:52;;;;;;;19.17;14.20;;;3.40;94.50;;;;;;5127337;27;20070;-82
2021/01/05 09:26:22;;;;;;;22.63;16.23;;;3.40;94.60;;;;;;5108653;27;20035;-81
2021/01/05 09:28:49;;;;;;;18.97;12.60;;;3.50;94.60;;;;;;5089364;27;20043;-82
2021/01/05 09:31:16;;;;;;;20.30;14.73;;;3.50;94.60;;;;;;5088740;27;20043;-81
2021/01/05 09:33:43;;;;;;;20.67;14.57;;;3.50;94.50;;;;;;5106247;27;20851;-82
2021/01/05 09:36:11;;;;;;;20.03;13.90;;;3.50;94.40;;;;;;5108272;27;20508;-81
2021/01/05 09:38:39;;;;;;;17.47;13.97;;;3.50;94.30;;;;;;5089011;27;20054;-82
2021/01/05 09:41:20;;;;;;;18.13;13.43;;;3.50;94.20;;;;;;5125758;27;20047;-82
2021/01/05 09:43:47;;;;;;;18.33;13.20;;;3.60;94.30;;;;;;5106964;27;20051;-81
2021/01/05 09:46:13;;;;;;;17.90;13.03;;;3.60;94.40;;;;;;5126497;27;20054;-81
2021/01/05 09:48:40;;;;;;;14.33;11.33;;;3.60;94.10;;;;;;5106289;27;20058;-82
2021/01/05 09:51:08;;;;;;;17.27;11.70;;;3.60;93.90;;;;;;5107475;27;20051;-82
2021/01/05 09:53:38;;;;;;;14.40;10.40;;;3.60;93.80;;;;;;5108024;27;20035;-81
2021/01/05 09:56:05;;;;;;;14.10;11.00;;;3.60;93.70;;;;;;5126101;27;20041;-81
2021/01/05 09:58:31;;;;;;;13.03;10.77;;;3.50;93.60;;;;;;5106840;27;20351;-82
2021/01/05 10:00:58;;;;;;;14.87;10.07;;;3.50;93.60;;;;;;5074048;27;20047;-75
2021/01/05 10:03:24;;;;;;;14.23;10.40;;;3.50;93.60;;;;;;5089316;27;20039;-75
2021/01/05 10:05:51;;;;;;;15.53;10.77;;;3.50;93.60;;;;;;5090611;27;20035;-75
2021/01/05 10:08:17;;;;;;;14.27;10.33;;;3.50;93.40;;;;;;5088804;27;20039;-75
2021/01/05 10:10:44;;;;;;;14.03;10.37;;;3.60;93.50;;;;;;5085452;28;20129;-75
2021/01/05 10:13:10;;;;;;;12.03;9.57;;;3.60;93.50;;;;;;5105761;27;20047;-75
2021/01/05 10:15:36;;;;;;;12.93;10.33;;;3.60;93.60;;;;;;5104034;28;20051;-75
2021/01/05 10:18:04;;;;;;;13.33;10.53;;;3.60;93.50;;;;;;5058855;28;20039;-75
2021/01/05 10:20:31;;;;;;;16.10;11.20;;;3.60;93.50;;;;;;5102184;28;20050;-75
2021/01/05 10:22:58;;;;;;;12.97;10.30;;;3.60;93.30;;;;;;5087384;28;20071;-76
2021/01/05 10:25:24;;;;;;;15.80;11.83;;;3.60;93.30;;;;;;5105758;27;20070;-75
2021/01/05 10:27:51;;;;;;;14.90;11.43;;;3.60;93.40;;;;;;5102768;28;20046;-75
2021/01/05 10:30:19;;;;;;;14.33;11.70;;;3.60;93.40;;;;;;5102924;27;20482;-75
2021/01/05 10:32:46;;;;;;;13.77;10.50;;;3.60;93.30;;;;;;5084509;28;20055;-75
2021/01/05 10:35:16;;;;;;;15.20;11.70;;;3.60;93.30;;;;;;5105406;28;20553;-75
2021/01/05 10:37:46;;;;;;;13.73;10.43;;;3.60;93.40;;;;;;5105686;27;20038;-76
2021/01/05 10:40:14;;;;;;;14.27;11.07;;;3.60;93.40;;;;;;5099639;28;20168;-75
2021/01/05 10:42:42;;;;;;;15.27;11.63;;;3.60;93.40;;;;;;5052019;28;20043;-75
2021/01/05 10:45:11;;;;;;;16.40;12.37;;;3.70;93.50;;;;;;5103650;28;20052;-75
2021/01/05 10:47:38;;;;;;;14.63;11.97;;;3.70;93.40;;;;;;5102242;28;20422;-75
2021/01/05 10:50:08;;;;;;;12.63;10.50;;;3.70;93.30;;;;;;5100819;28;20058;-75
2021/01/05 10:52:34;;;;;;;13.70;11.33;;;3.70;93.40;;;;;;5104646;28;20050;-75
2021/01/05 10:55:02;;;;;;;14.17;11.40;;;3.70;93.50;;;;;;5052298;28;20473;-75
2021/01/05 10:57:30;;;;;;;11.57;10.30;;;3.70;93.40;;;;;;5104641;28;20070;-75
2021/01/05 10:59:56;;;;;;;14.53;11.50;;;3.80;93.40;;;;;;5050513;28;20474;-74
2021/01/05 11:02:23;;;;;;;12.93;9.97;;;3.80;93.30;;;;;;5064250;28;20040;-75
2021/01/05 11:04:50;;;;;;;13.50;10.63;;;3.80;93.30;;;;;;5083916;28;20044;-75
2021/01/05 11:07:17;;;;;;;13.63;10.77;;;3.80;93.30;;;;;;5052828;28;20040;-75
2021/01/05 11:09:44;;;;;;;12.47;10.33;;;3.80;93.30;;;;;;5107418;27;20053;-75
2021/01/05 11:12:22;;;;;;;13.73;10.17;;;3.80;93.20;;;;;;5089407;28;20085;-75
2021/01/05 11:14:48;;;;;;;12.73;10.40;;;3.80;93.30;;;;;;5075399;28;20031;-75
2021/01/05 11:17:15;;;;;;;14.03;10.50;;;3.80;93.30;;;;;;5121846;28;20590;-75
2021/01/05 11:19:42;;;;;;;13.63;9.87;;;3.80;93.30;;;;;;5070589;28;20042;-75
2021/01/05 11:22:14;;;;;;;14.73;11.23;;;3.80;93.30;;;;;;5088872;28;20048;-75
2021/01/05 11:24:41;;;;;;;13.67;10.57;;;3.80;93.40;;;;;;5105957;28;20390;-75
2021/01/05 11:27:08;;;;;;;13.43;10.43;;;3.80;93.40;;;;;;5106472;28;20485;-75
2021/01/05 11:29:36;;;;;;;17.27;12.40;;;3.90;93.50;;;;;;5090045;28;20042;-75
2021/01/05 11:32:06;;;;;;;17.57;12.83;;;3.80;93.40;;;;;;5106566;28;20031;-75
2021/01/05 11:34:33;;;;;;;16.30;12.53;;;3.90;93.20;;;;;;5106037;28;20564;-75
2021/01/05 11:37:05;;;;;;;18.63;13.67;;;3.80;93.20;;;;;;5088126;28;20050;-75
2021/01/05 11:39:32;;;;;;;17.05;12.80;;;3.80;93.30;;;;;;5087530;28;20039;-81
2021/01/05 11:42:04;;;;;;;17.60;12.50;;;3.80;93.30;;;;;;5073464;28;20036;-81
2021/01/05 11:44:31;;;;;;;17.80;12.30;;;3.80;93.50;;;;;;5109109;27;20031;-81
2021/01/05 11:46:58;;;;;;;17.37;13.07;;;3.80;93.50;;;;;;5127485;27;20043;-81
2021/01/05 11:49:25;;;;;;;21.60;15.30;;;3.90;93.60;;;;;;5091571;27;20042;-81
2021/01/05 11:51:54;;;;;;;20.13;14.70;;;3.90;93.50;;;;;;5110634;27;20035;-81
2021/01/05 11:54:21;;;;;;;21.83;15.47;;;3.90;93.60;;;;;;5093291;27;20043;-81
2021/01/05 11:56:48;;;;;;;24.50;16.90;;;3.90;93.70;;;;;;5128655;27;20054;-81
2021/01/05 11:59:15;;;;;;;23.37;16.70;;;3.90;93.70;;;;;;5108198;27;20046;-82
2021/01/05 12:01:42;;;;;;;21.20;14.83;;;3.90;94.00;;;;;;5059979;27;20054;-80
2021/01/05 12:04:10;;;;;;;23.80;17.03;;;3.90;93.80;;;;;;5042448;27;20042;-82
2021/01/05 12:06:37;;;;;;;28.63;19.43;;;3.90;93.90;;;;;;5110552;27;20038;-81
2021/01/05 12:09:05;;;;;;;27.53;19.63;;;3.90;93.80;;;;;;5092127;27;20070;-81
2021/01/05 12:11:34;;;;;;;28.40;19.57;;;3.90;93.80;;;;;;5089395;28;20043;-81
2021/01/05 12:14:01;;;;;;;28.67;18.43;;;3.90;93.80;;;;;;5090611;28;20569;-81
2021/01/05 12:16:34;;;;;;;27.47;19.67;;;3.90;93.90;;;;;;5107565;28;20043;-81
2021/01/05 12:19:03;;;;;;;25.37;17.67;;;3.90;94.20;;;;;;5106453;28;20040;-81
2021/01/05 12:21:33;;;;;;;26.20;17.33;;;3.90;93.90;;;;;;5069801;28;20031;-82
2021/01/05 12:24:00;;;;;;;24.47;17.37;;;3.90;94.00;;;;;;5107636;28;20059;-81
2021/01/05 12:26:29;;;;;;;20.13;15.07;;;3.90;93.90;;;;;;5105815;28;20051;-81
2021/01/05 12:28:58;;;;;;;22.33;15.23;;;3.90;94.00;;;;;;5106041;27;20039;-81
2021/01/05 12:31:25;;;;;;;22.77;16.17;;;4.00;94.10;;;;;;5107634;28;20027;-81
2021/01/05 12:33:52;;;;;;;23.93;16.50;;;4.00;93.90;;;;;;5105752;28;20051;-82
2021/01/05 12:36:27;;;;;;;25.70;18.43;;;4.00;93.80;;;;;;5106847;28;20038;-81
2021/01/05 12:38:55;;;;;;;22.43;16.77;;;4.00;93.80;;;;;;5086984;28;20028;-80
2021/01/05 12:41:22;;;;;;;25.50;16.93;;;4.00;93.80;;;;;;5105890;28;20110;-81
2021/01/05 12:43:48;;;;;;;23.73;17.00;;;4.00;93.70;;;;;;5106396;28;20501;-81
2021/01/05 12:46:26;;;;;;;26.07;17.00;;;4.00;93.50;;;;;;5104423;28;20125;-81
2021/01/05 12:48:53;;;;;;;29.10;17.97;;;3.90;93.50;;;;;;5104383;28;20039;-81
2021/01/05 12:51:30;;;;;;;26.10;16.97;;;4.00;93.60;;;;;;5106044;28;20413;-81
2021/01/05 12:53:57;;;;;;;26.03;17.03;;;4.00;93.60;;;;;;5106680;28;20050;-81
2021/01/05 12:56:24;;;;;;;23.47;17.43;;;4.00;93.60;;;;;;5088804;28;20028;-81
2021/01/05 12:58:51;;;;;;;24.83;17.67;;;4.00;93.60;;;;;;5085329;28;20124;-81
2021/01/05 13:01:19;;;;;;;27.80;17.77;;;4.00;93.50;;;;;;5086396;28;20024;-81
2021/01/05 13:03:47;;;;;;;24.03;16.27;;;4.00;93.60;;;;;;5104534;28;20054;-81
2021/01/05 13:06:15;;;;;;;23.97;15.77;;;4.00;93.60;;;;;;5071993;28;20028;-81
2021/01/05 13:08:43;;;;;;;25.43;17.93;;;4.00;93.70;;;;;;5087608;28;20035;-81